Villa del Pilar, Puerto Rico
Current Conditions -  °F | °C
As of 2:53 PM on Friday 21 Nov 2014 (Local Time) from TJNR Reporting Station
Scattered Clouds Scattered Clouds  
Wind Chill: 84°   Ceiling: Unl
Heat Index: 93°   Visibility: 10mi
Dew Point: 76°   Wind: 7mph
Humidity: 76%   Direction: 60°ENE
Pressure: 29.99"   Gusts: NA
Location:  18.2667°N, 65.6476°W
Report Text: TJNR 211853Z AUTO 06006KT 10SM FEW023 SCT060 SCT100 29/24 A2999 RMK AO2 SLP154 T02890244 $
Loading
Personal Weather Stations






























Interactive Weather Map New forecast layout! Learn more

10-Day Weather Forecast

Advertisements
Track Severe Weather on mobile